Time;durP1;ratioP1;P1;durP2;ratioP2;P2;SDS_P1;SDS_P2;PMS_P1;PMS_P2;Temp;Humidity;BMP_temperature;BMP_pressure;BME280_temperature;BME280_humidity;BME280_pressure;Samples;Min_cycle;Max_cycle;Signal;HPM_P1;HPM_P2
2023/09/28 07:20:46;;;;;;;7.40;4.18;;;20.30;1.00;;;;;;5037604;22;20084;-74
2023/09/28 07:23:12;;;;;;;11.60;4.82;;;20.30;1.00;;;;;;5021100;28;20433;-74
2023/09/28 07:25:38;;;;;;;6.55;4.40;;;20.40;11.80;;;;;;4935917;28;20036;-74
2023/09/28 07:28:04;;;;;;;12.55;4.50;;;20.40;99.90;;;;;;4937804;28;20111;-74
2023/09/28 07:30:30;;;;;;;8.00;4.47;;;20.40;99.90;;;;;;5001643;28;20081;-74
2023/09/28 07:32:56;;;;;;;8.40;3.95;;;20.50;99.90;;;;;;5003830;28;20432;-74
2023/09/28 07:35:22;;;;;;;13.57;4.88;;;20.40;99.90;;;;;;5019187;28;20018;-74
2023/09/28 07:37:48;;;;;;;7.47;4.65;;;20.50;99.90;;;;;;5020431;28;20032;-74
2023/09/28 07:40:17;;;;;;;7.60;4.25;;;20.50;99.90;;;;;;5009054;28;20168;-74
2023/09/28 07:42:44;;;;;;;7.18;4.40;;;20.50;99.90;;;;;;5003174;28;20493;-74
2023/09/28 07:45:13;;;;;;;5.28;4.45;;;20.50;99.90;;;;;;5018602;28;20030;-74
2023/09/28 07:47:39;;;;;;;7.35;4.50;;;20.50;99.90;;;;;;5019004;28;20018;-74
2023/09/28 07:50:06;;;;;;;8.30;4.35;;;20.60;99.90;;;;;;5014757;28;20064;-74
2023/09/28 07:52:32;;;;;;;8.95;4.80;;;20.60;99.90;;;;;;5017704;28;20037;-74
2023/09/28 07:54:58;;;;;;;18.60;4.65;;;20.70;99.90;;;;;;5016634;28;20022;-74
2023/09/28 07:57:24;;;;;;;9.13;4.43;;;20.70;99.90;;;;;;5019138;28;20102;-74
2023/09/28 07:59:49;;;;;;;7.90;4.20;;;20.80;99.90;;;;;;5020097;28;20113;-74
2023/09/28 08:02:15;;;;;;;6.15;4.22;;;20.80;99.90;;;;;;5016469;28;20041;-74
2023/09/28 08:04:41;;;;;;;12.88;5.18;;;20.90;99.90;;;;;;5019872;28;20036;-74
2023/09/28 08:07:06;;;;;;;10.55;4.72;;;20.90;99.90;;;;;;5018742;28;20548;-74
2023/09/28 08:09:33;;;;;;;9.05;4.57;;;21.00;99.90;;;;;;5018880;28;20427;-74
2023/09/28 08:11:59;;;;;;;7.15;4.03;;;21.00;99.90;;;;;;5017175;28;20022;-74
2023/09/28 08:14:25;;;;;;;7.60;4.30;;;21.00;99.90;;;;;;5021172;28;20032;-74
2023/09/28 08:16:51;;;;;;;5.22;4.25;;;21.00;99.90;;;;;;5016186;28;20030;-74
2023/09/28 08:19:19;;;;;;;11.18;4.82;;;21.00;99.90;;;;;;5022219;28;20021;-74
2023/09/28 08:21:45;;;;;;;9.80;4.80;;;21.00;99.90;;;;;;4999006;28;20056;-74
2023/09/28 08:24:12;;;;;;;6.18;4.65;;;21.00;99.90;;;;;;5020368;28;20025;-74
2023/09/28 08:26:38;;;;;;;5.15;4.50;;;21.00;99.90;;;;;;5016224;28;20030;-74
2023/09/28 08:29:08;;;;;;;7.18;4.82;;;21.00;99.90;;;;;;5002910;28;20516;-74
2023/09/28 08:31:33;;;;;;;5.72;4.35;;;21.00;99.90;;;;;;5018945;28;20028;-74
2023/09/28 08:34:03;;;;;;;9.07;4.30;;;21.00;99.90;;;;;;5022443;28;20030;-74
2023/09/28 08:36:30;;;;;;;7.85;4.90;;;21.00;99.90;;;;;;5023025;28;20120;-75
2023/09/28 08:38:56;;;;;;;10.35;5.15;;;21.00;99.90;;;;;;5024275;28;20034;-74
2023/09/28 08:41:47;;;;;;;9.43;4.93;;;21.00;99.90;;;;;;5006511;28;20168;-74
2023/09/28 08:44:13;;;;;;;10.23;5.13;;;21.00;99.90;;;;;;5023337;28;20531;-74
2023/09/28 08:46:40;;;;;;;7.20;4.50;;;21.00;1.00;;;;;;5022287;28;20053;-75
2023/09/28 08:49:10;;;;;;;6.70;5.10;;;21.00;1.00;;;;;;5007835;28;20017;-75
2023/09/28 08:51:39;;;;;;;5.43;4.93;;;21.00;1.00;;;;;;5018047;28;20087;-74
2023/09/28 08:54:06;;;;;;;7.68;5.03;;;21.00;99.90;;;;;;5006598;28;20061;-74
2023/09/28 08:56:37;;;;;;;11.45;5.63;;;21.10;99.90;;;;;;5002422;28;20437;-74
2023/09/28 08:59:04;;;;;;;8.68;4.85;;;21.10;99.90;;;;;;5019458;28;20396;-74
2023/09/28 09:01:31;;;;;;;5.13;4.70;;;21.10;99.90;;;;;;5004102;28;20030;-74
2023/09/28 09:03:57;;;;;;;5.00;4.40;;;21.20;99.90;;;;;;5024642;28;20017;-74
2023/09/28 09:06:24;;;;;;;5.95;4.63;;;21.30;99.90;;;;;;5003768;28;20033;-74
2023/09/28 09:08:52;;;;;;;7.25;4.22;;;21.30;99.90;;;;;;5022150;28;20018;-74
2023/09/28 09:11:19;;;;;;;10.80;4.75;;;21.40;99.90;;;;;;4988717;28;20046;-74
2023/09/28 09:13:56;;;;;;;6.72;4.45;;;21.40;76.20;;;;;;4924984;28;20016;-74
2023/09/28 09:16:25;;;;;;;5.93;4.70;;;21.50;1.00;;;;;;4957205;28;20032;-74
2023/09/28 09:18:53;;;;;;;5.32;4.20;;;21.50;99.90;;;;;;4930425;28;20034;-74
2023/09/28 09:21:19;;;;;;;4.43;4.03;;;21.50;1.00;;;;;;4937718;28;20083;-74
2023/09/28 09:24:04;;;;;;;6.97;3.95;;;21.60;1.00;;;;;;5009759;28;20116;-74
2023/09/28 09:26:44;;;;;;;8.88;4.20;;;21.60;49.20;;;;;;5017058;28;20029;-75
2023/09/28 09:29:15;;;;;;;6.15;4.72;;;21.70;1.00;;;;;;5024866;28;20045;-74
2023/09/28 09:31:42;;;;;;;8.45;5.25;;;21.70;1.00;;;;;;5016840;28;20106;-74
2023/09/28 09:34:35;;;;;;;6.70;4.63;;;21.70;1.00;;;;;;5023711;28;20270;-75
2023/09/28 09:37:01;;;;;;;12.55;4.85;;;21.80;42.50;;;;;;5018909;28;20041;-74
2023/09/28 09:39:29;;;;;;;6.35;4.65;;;21.90;99.90;;;;;;5021723;28;20033;-74
2023/09/28 09:41:56;;;;;;;16.85;4.47;;;22.20;99.90;;;;;;5017889;28;20018;-74
2023/09/28 09:44:24;;;;;;;11.63;4.68;;;22.30;99.90;;;;;;5006084;28;20555;-74
2023/09/28 09:46:52;;;;;;;10.15;4.72;;;22.50;44.60;;;;;;5017754;28;20058;-74
2023/09/28 09:49:19;;;;;;;8.65;4.13;;;22.50;1.00;;;;;;5024137;28;20024;-74
2023/09/28 09:51:48;;;;;;;10.55;4.60;;;22.60;1.00;;;;;;5018602;28;20026;-74
2023/09/28 09:54:19;;;;;;;11.65;4.97;;;22.70;1.00;;;;;;5025037;28;20026;-74
2023/09/28 09:56:46;;;;;;;10.13;4.45;;;22.70;1.00;;;;;;5003643;28;20036;-75
2023/09/28 09:59:15;;;;;;;4.32;3.75;;;22.80;1.00;;;;;;5018417;28;20038;-74
2023/09/28 10:01:46;;;;;;;11.70;4.90;;;23.10;1.00;;;;;;5015050;28;20018;-74
2023/09/28 10:04:14;;;;;;;7.75;4.15;;;23.30;1.00;;;;;;5023056;28;20108;-75
2023/09/28 10:06:47;;;;;;;66.85;9.25;;;23.20;1.00;;;;;;5017500;28;20036;-74
2023/09/28 10:09:14;;;;;;;8.55;4.45;;;23.30;1.00;;;;;;5022700;28;20704;-74
2023/09/28 10:11:41;;;;;;;6.53;4.47;;;23.30;1.00;;;;;;5007832;28;20493;-75
2023/09/28 10:14:08;;;;;;;9.35;4.68;;;23.30;1.00;;;;;;5022250;28;20026;-75
2023/09/28 10:16:36;;;;;;;7.38;4.47;;;23.30;1.00;;;;;;5019896;28;20104;-74
2023/09/28 10:19:04;;;;;;;10.95;4.95;;;23.30;1.00;;;;;;5019972;28;20029;-75
2023/09/28 10:21:39;;;;;;;9.50;4.05;;;23.30;1.00;;;;;;5012819;28;20049;-74
2023/09/28 10:24:12;;;;;;;10.43;4.13;;;23.40;1.00;;;;;;5020964;28;20121;-74
2023/09/28 10:26:41;;;;;;;9.93;4.28;;;23.40;1.00;;;;;;5019129;28;20030;-74
2023/09/28 10:29:09;;;;;;;5.97;4.03;;;23.30;1.00;;;;;;5001768;28;20026;-74
2023/09/28 10:31:42;;;;;;;10.27;4.30;;;23.40;1.00;;;;;;5019248;28;20026;-74
2023/09/28 10:34:15;;;;;;;7.20;4.50;;;23.50;1.00;;;;;;5022981;28;20029;-75
2023/09/28 10:36:41;;;;;;;4.90;4.18;;;23.50;1.00;;;;;;5018605;28;20028;-74
2023/09/28 10:39:14;;;;;;;9.75;4.90;;;23.50;1.00;;;;;;5022067;28;20030;-74
2023/09/28 10:41:51;;;;;;;10.82;4.40;;;23.70;1.00;;;;;;5018293;28;20390;-74
2023/09/28 10:44:20;;;;;;;11.93;4.45;;;23.70;1.00;;;;;;5019601;28;20034;-75
2023/09/28 10:46:48;;;;;;;5.03;4.53;;;23.70;1.00;;;;;;5017502;28;20478;-74
2023/09/28 10:49:21;;;;;;;6.65;5.32;;;23.80;1.00;;;;;;5023636;28;20036;-74
2023/09/28 10:51:47;;;;;;;5.63;5.03;;;23.80;1.00;;;;;;4999057;28;20049;-74
2023/09/28 10:54:13;;;;;;;7.80;5.35;;;23.90;1.00;;;;;;5021793;28;20026;-74
2023/09/28 10:56:39;;;;;;;8.75;5.13;;;23.80;1.00;;;;;;5018190;28;20053;-75
2023/09/28 10:59:07;;;;;;;9.38;5.43;;;23.80;1.00;;;;;;5005520;28;20026;-74
2023/09/28 11:01:39;;;;;;;5.80;4.53;;;23.90;1.00;;;;;;5016128;28;20052;-74
2023/09/28 11:04:04;;;;;;;6.97;4.93;;;23.80;1.00;;;;;;5019287;28;20026;-74
2023/09/28 11:06:30;;;;;;;11.68;5.13;;;23.80;1.00;;;;;;5019259;28;20032;-74
2023/09/28 11:09:01;;;;;;;9.57;4.07;;;23.90;1.00;;;;;;5022625;28;20018;-74
2023/09/28 11:11:30;;;;;;;11.63;4.45;;;24.00;1.00;;;;;;5012373;28;20100;-74
2023/09/28 11:13:58;;;;;;;6.40;4.15;;;23.90;1.00;;;;;;5020868;28;20029;-74
2023/09/28 11:16:25;;;;;;;9.60;4.78;;;23.80;1.00;;;;;;5017441;28;20029;-74
2023/09/28 11:18:54;;;;;;;5.22;4.78;;;23.90;1.00;;;;;;5019778;28;20481;-74
2023/09/28 11:21:21;;;;;;;7.75;4.78;;;23.80;1.00;;;;;;4942514;28;20199;-75
2023/09/28 11:23:51;;;;;;;6.15;3.95;;;24.00;1.00;;;;;;5020604;28;20117;-74
2023/09/28 11:26:17;;;;;;;10.07;4.70;;;24.20;1.00;;;;;;5019145;28;20040;-74
2023/09/28 11:28:44;;;;;;;5.15;4.47;;;24.20;1.00;;;;;;5023583;28;20033;-74
2023/09/28 11:31:12;;;;;;;7.05;4.88;;;24.20;1.00;;;;;;5019484;28;20030;-75
2023/09/28 11:33:43;;;;;;;5.05;4.35;;;24.30;1.00;;;;;;4999080;28;20030;-74
2023/09/28 11:36:12;;;;;;;10.03;5.20;;;24.20;1.00;;;;;;5016516;28;20598;-75
2023/09/28 11:38:41;;;;;;;9.40;5.10;;;24.20;1.00;;;;;;5019771;28;20036;-74
2023/09/28 11:41:08;;;;;;;7.13;4.45;;;24.20;1.00;;;;;;5017612;28;20026;-75
2023/09/28 11:43:44;;;;;;;7.50;4.68;;;24.20;1.00;;;;;;5020323;28;20044;-74
2023/09/28 11:46:12;;;;;;;11.85;4.57;;;24.20;1.00;;;;;;5019717;28;20029;-74
2023/09/28 11:48:38;;;;;;;10.18;4.93;;;24.20;1.00;;;;;;5022574;28;20018;-74
2023/09/28 11:51:05;;;;;;;10.35;7.65;;;24.20;1.00;;;;;;4951088;28;20456;-74
2023/09/28 11:53:31;;;;;;;8.10;5.75;;;24.30;1.00;;;;;;4934084;28;20020;-75
2023/09/28 11:55:59;;;;;;;13.35;5.32;;;24.30;1.00;;;;;;4964878;28;20048;-74
2023/09/28 11:58:25;;;;;;;11.30;4.85;;;24.40;1.00;;;;;;5020003;28;20084;-74
2023/09/28 12:00:51;;;;;;;13.23;4.90;;;24.60;1.00;;;;;;5016306;28;20030;-74
2023/09/28 12:03:18;;;;;;;17.75;5.07;;;24.60;1.00;;;;;;5022682;28;20045;-74
2023/09/28 12:05:44;;;;;;;8.65;4.68;;;24.60;99.90;;;;;;5019403;28;20056;-74
2023/09/28 12:08:10;;;;;;;6.55;4.88;;;24.60;1.00;;;;;;5018946;28;20512;-74
2023/09/28 12:10:37;;;;;;;24.92;5.05;;;24.60;1.00;;;;;;4941378;28;20014;-74
2023/09/28 12:13:03;;;;;;;14.18;5.28;;;24.60;1.00;;;;;;4928152;28;20027;-74
2023/09/28 12:15:29;;;;;;;8.82;4.82;;;24.50;1.00;;;;;;4950260;28;20541;-75
2023/09/28 12:17:55;;;;;;;8.23;4.30;;;24.50;1.00;;;;;;5001512;28;20026;-75
2023/09/28 12:20:20;;;;;;;5.43;4.47;;;24.50;1.00;;;;;;5020411;28;20084;-74
2023/09/28 12:22:47;;;;;;;10.85;4.85;;;24.50;99.90;;;;;;5022471;28;20049;-74
2023/09/28 12:25:13;;;;;;;8.00;4.90;;;24.50;1.00;;;;;;5005261;28;20044;-75
2023/09/28 12:27:41;;;;;;;8.60;4.20;;;24.50;1.00;;;;;;5023721;28;20262;-74
2023/09/28 12:30:07;;;;;;;5.47;4.15;;;24.50;1.00;;;;;;5021961;28;20013;-74
2023/09/28 12:32:33;;;;;;;12.27;5.32;;;24.50;1.00;;;;;;5026630;28;20059;-75
2023/09/28 12:35:02;;;;;;;8.82;4.45;;;24.40;1.00;;;;;;5019345;28;20383;-75
2023/09/28 12:37:29;;;;;;;11.30;4.80;;;24.40;1.00;;;;;;5022641;28;20389;-74
2023/09/28 12:39:55;;;;;;;9.18;5.55;;;24.30;1.00;;;;;;5021583;28;20061;-74
2023/09/28 12:42:23;;;;;;;10.23;4.93;;;24.30;1.00;;;;;;5022873;28;20120;-74
2023/09/28 12:44:50;;;;;;;7.88;4.82;;;24.40;1.00;;;;;;5021821;28;20072;-74
2023/09/28 12:47:19;;;;;;;7.25;4.53;;;24.30;1.00;;;;;;5020222;28;20018;-74
2023/09/28 12:49:46;;;;;;;8.07;4.60;;;24.40;1.00;;;;;;5022878;28;20018;-74
2023/09/28 12:52:12;;;;;;;8.77;4.47;;;24.50;1.00;;;;;;5005502;28;20053;-74
2023/09/28 12:54:37;;;;;;;11.18;4.80;;;24.60;1.00;;;;;;5021629;28;20072;-74
2023/09/28 12:57:04;;;;;;;7.82;4.13;;;24.60;1.00;;;;;;5022336;28;20544;-74
2023/09/28 12:59:31;;;;;;;9.27;4.72;;;24.70;1.00;;;;;;5024555;28;20013;-74
2023/09/28 13:01:57;;;;;;;7.20;4.75;;;24.80;1.00;;;;;;5024325;28;20069;-74
2023/09/28 13:04:22;;;;;;;5.68;5.03;;;24.80;1.00;;;;;;5023238;28;20441;-74
2023/09/28 13:06:51;;;;;;;5.15;4.75;;;24.90;1.00;;;;;;5018103;28;20552;-74
2023/09/28 13:09:16;;;;;;;7.50;4.43;;;25.00;1.00;;;;;;5018470;28;20022;-74
2023/09/28 13:11:43;;;;;;;6.60;4.53;;;25.00;1.00;;;;;;5007642;28;20033;-74
2023/09/28 13:14:09;;;;;;;12.63;4.40;;;25.10;1.00;;;;;;5023459;28;20395;-74
2023/09/28 13:16:34;;;;;;;5.13;4.60;;;25.10;1.00;;;;;;5019474;28;20040;-75
2023/09/28 13:19:01;;;;;;;5.72;4.75;;;25.20;1.00;;;;;;5011688;28;20033;-75
2023/09/28 13:21:27;;;;;;;13.63;4.65;;;25.20;1.00;;;;;;5014098;28;20122;-74
2023/09/28 13:23:57;;;;;;;13.63;4.50;;;25.20;99.90;;;;;;5021034;28;20112;-75
2023/09/28 13:26:24;;;;;;;7.35;4.60;;;25.20;99.90;;;;;;4943037;28;20032;-74
2023/09/28 13:28:54;;;;;;;10.38;5.10;;;25.20;99.90;;;;;;5023594;28;20076;-75
2023/09/28 13:31:22;;;;;;;9.75;4.85;;;25.30;99.90;;;;;;5018557;28;20065;-75
2023/09/28 13:33:51;;;;;;;10.23;4.93;;;25.20;99.90;;;;;;5019788;28;20382;-74
2023/09/28 13:36:18;;;;;;;9.50;4.50;;;25.20;1.00;;;;;;5019694;28;20033;-74
2023/09/28 13:38:47;;;;;;;10.75;4.47;;;25.20;1.00;;;;;;5009511;28;20036;-75
2023/09/28 13:41:13;;;;;;;6.65;4.80;;;25.30;99.90;;;;;;5021958;28;20034;-74
2023/09/28 13:43:39;;;;;;;10.45;5.00;;;25.20;99.90;;;;;;5021355;28;20389;-74
2023/09/28 13:46:04;;;;;;;12.48;5.28;;;25.20;99.90;;;;;;5016262;28;20026;-75
2023/09/28 13:48:30;;;;;;;8.23;4.90;;;25.20;99.90;;;;;;5021745;28;20025;-74
2023/09/28 13:50:57;;;;;;;7.10;4.53;;;25.30;99.90;;;;;;5005704;28;20033;-75
2023/09/28 13:53:25;;;;;;;6.63;5.22;;;25.30;99.90;;;;;;5023237;28;20018;-74
2023/09/28 13:55:52;;;;;;;10.38;4.70;;;25.30;99.90;;;;;;5016691;28;20045;-75
2023/09/28 13:58:19;;;;;;;12.18;4.82;;;25.30;99.90;;;;;;5017656;28;20033;-74
2023/09/28 14:00:45;;;;;;;8.38;4.65;;;25.30;99.90;;;;;;5009113;28;20508;-74
2023/09/28 14:03:15;;;;;;;6.80;4.75;;;25.40;99.90;;;;;;5017743;28;20476;-74
2023/09/28 14:05:41;;;;;;;6.50;4.68;;;25.40;99.90;;;;;;5001514;28;20026;-74
2023/09/28 14:08:08;;;;;;;12.77;5.15;;;25.40;99.90;;;;;;5025279;28;20104;-74
2023/09/28 14:10:34;;;;;;;8.57;5.05;;;25.40;99.90;;;;;;5013855;28;20044;-74
2023/09/28 14:13:01;;;;;;;7.80;5.10;;;25.40;99.90;;;;;;5002130;28;20533;-74
2023/09/28 14:15:26;;;;;;;7.93;4.97;;;25.30;99.90;;;;;;5018606;28;20026;-74
2023/09/28 14:17:53;;;;;;;8.65;5.30;;;25.40;99.90;;;;;;5018791;28;20496;-74
2023/09/28 14:20:19;;;;;;;9.48;5.40;;;25.40;99.90;;;;;;5018512;28;20045;-74
2023/09/28 14:22:46;;;;;;;6.95;5.20;;;25.40;99.90;;;;;;5024031;28;20037;-74
2023/09/28 14:25:12;;;;;;;10.43;4.80;;;25.40;99.90;;;;;;5020151;28;20481;-75
2023/09/28 14:27:43;;;;;;;8.80;4.75;;;25.30;99.90;;;;;;5023468;28;20021;-74
2023/09/28 14:30:09;;;;;;;6.70;5.07;;;25.30;99.90;;;;;;5008639;28;20018;-74
2023/09/28 14:32:38;;;;;;;8.90;5.60;;;25.20;99.90;;;;;;5022297;28;20032;-74
2023/09/28 14:35:05;;;;;;;12.13;5.20;;;25.20;99.90;;;;;;5015566;28;20014;-74
2023/09/28 14:37:32;;;;;;;9.68;5.38;;;25.20;99.90;;;;;;5003765;28;20362;-74
2023/09/28 14:39:59;;;;;;;11.57;5.20;;;25.20;99.90;;;;;;5019522;28;20469;-74
2023/09/28 14:42:28;;;;;;;7.22;4.93;;;25.10;99.90;;;;;;5022285;28;20049;-74
2023/09/28 14:44:54;;;;;;;9.60;5.00;;;25.20;99.90;;;;;;5019587;28;20071;-74
2023/09/28 14:47:20;;;;;;;11.57;5.32;;;25.20;99.90;;;;;;5007100;28;20128;-74
2023/09/28 14:49:46;;;;;;;9.95;5.57;;;25.20;99.90;;;;;;5010259;28;20028;-74
2023/09/28 14:52:16;;;;;;;12.15;5.00;;;25.20;99.90;;;;;;5004014;28;20257;-75
2023/09/28 14:54:42;;;;;;;10.55;4.60;;;25.20;99.90;;;;;;5020520;28;20101;-74
2023/09/28 14:57:08;;;;;;;11.07;5.28;;;25.10;99.90;;;;;;5021839;28;20032;-74
2023/09/28 14:59:34;;;;;;;11.50;5.00;;;25.10;99.90;;;;;;5019422;28;20025;-74
2023/09/28 15:02:00;;;;;;;6.18;5.07;;;25.00;99.90;;;;;;5018157;28;20112;-75
2023/09/28 15:04:25;;;;;;;6.72;5.13;;;25.00;99.90;;;;;;5018701;28;20109;-75
2023/09/28 15:06:52;;;;;;;8.25;5.00;;;25.00;99.90;;;;;;5020876;28;20029;-74
2023/09/28 15:09:18;;;;;;;13.55;5.80;;;25.00;99.90;;;;;;5002573;28;20030;-74
2023/09/28 15:11:44;;;;;;;15.60;5.15;;;24.90;99.90;;;;;;5019305;28;20025;-74
2023/09/28 15:14:10;;;;;;;10.93;5.32;;;24.90;99.90;;;;;;5003283;28;20113;-74
2023/09/28 15:16:37;;;;;;;9.25;5.43;;;24.90;99.90;;;;;;5012424;28;20453;-74
2023/09/28 15:19:03;;;;;;;11.82;5.20;;;24.80;99.90;;;;;;5002529;28;20039;-75
2023/09/28 15:21:28;;;;;;;13.63;5.15;;;24.80;1.00;;;;;;5019695;28;20121;-74
2023/09/28 15:23:54;;;;;;;7.53;5.03;;;24.80;1.00;;;;;;5024147;28;20118;-74
2023/09/28 15:26:20;;;;;;;14.20;5.50;;;24.80;1.00;;;;;;5023370;28;20045;-74
2023/09/28 15:28:45;;;;;;;6.07;4.43;;;24.80;1.00;;;;;;5020069;28;20030;-74
2023/09/28 15:31:11;;;;;;;8.82;5.40;;;24.70;1.00;;;;;;5015882;28;20076;-74
2023/09/28 15:33:37;;;;;;;5.47;4.93;;;24.70;1.00;;;;;;5002587;28;20021;-74
2023/09/28 15:36:03;;;;;;;14.30;5.10;;;24.60;1.00;;;;;;5014912;28;20096;-74
2023/09/28 15:38:29;;;;;;;8.35;4.97;;;24.60;1.00;;;;;;5016501;28;20504;-74
2023/09/28 15:40:55;;;;;;;11.13;5.07;;;24.50;1.00;;;;;;5016641;28;20026;-74
2023/09/28 15:43:21;;;;;;;12.75;5.22;;;24.40;21.10;;;;;;5007071;28;20025;-74
2023/09/28 15:45:48;;;;;;;10.50;5.60;;;24.40;70.00;;;;;;5018553;28;20444;-74
2023/09/28 15:48:14;;;;;;;6.82;5.53;;;24.30;99.90;;;;;;5026602;28;20061;-74
2023/09/28 15:50:40;;;;;;;5.88;5.35;;;24.20;99.90;;;;;;5017312;28;20515;-74
2023/09/28 15:53:07;;;;;;;10.95;5.13;;;24.10;99.90;;;;;;5027244;28;20026;-74
2023/09/28 15:55:33;;;;;;;10.77;5.85;;;24.00;99.90;;;;;;5022889;28;20025;-74
2023/09/28 15:58:00;;;;;;;7.80;5.63;;;23.90;99.90;;;;;;5010755;28;20025;-74
2023/09/28 16:00:27;;;;;;;9.63;5.20;;;23.90;99.90;;;;;;5002240;28;20041;-75
2023/09/28 16:02:52;;;;;;;8.85;5.43;;;23.80;99.90;;;;;;5024914;28;20034;-74
2023/09/28 16:05:22;;;;;;;14.45;6.13;;;23.80;99.90;;;;;;5020107;28;20033;-74
2023/09/28 16:07:47;;;;;;;8.00;5.32;;;23.70;99.90;;;;;;5020549;28;20025;-74
2023/09/28 16:10:13;;;;;;;16.67;6.05;;;23.60;99.90;;;;;;5002173;28;20018;-74
2023/09/28 16:12:41;;;;;;;12.35;5.30;;;23.60;99.90;;;;;;5006248;28;20026;-74
2023/09/28 16:15:07;;;;;;;9.82;5.07;;;23.50;99.90;;;;;;5016793;28;20014;-74
2023/09/28 16:17:33;;;;;;;9.68;5.32;;;23.50;99.90;;;;;;5006439;28;20333;-77
2023/09/28 16:19:58;;;;;;;7.65;5.00;;;23.50;99.90;;;;;;5025012;28;20037;-77
2023/09/28 16:22:24;;;;;;;11.85;5.43;;;23.30;99.90;;;;;;5022705;28;20014;-77
2023/09/28 16:24:49;;;;;;;8.93;4.85;;;23.30;99.90;;;;;;5017727;28;20026;-77
2023/09/28 16:27:18;;;;;;;7.28;5.57;;;23.20;99.90;;;;;;5018747;28;20033;-77
2023/09/28 16:29:47;;;;;;;9.43;5.50;;;23.20;99.90;;;;;;5015388;28;20173;-77
2023/09/28 16:32:13;;;;;;;10.93;5.60;;;23.10;99.90;;;;;;5013756;28;20037;-77
2023/09/28 16:34:39;;;;;;;8.70;5.95;;;23.10;99.90;;;;;;5019303;28;20195;-77
2023/09/28 16:37:05;;;;;;;7.95;5.10;;;22.90;99.90;;;;;;5000913;28;20036;-77
2023/09/28 16:39:30;;;;;;;9.45;5.25;;;22.80;1.00;;;;;;4988456;28;20390;-77
2023/09/28 16:41:56;;;;;;;10.35;6.32;;;22.80;1.00;;;;;;4956239;28;20098;-77
2023/09/28 16:44:22;;;;;;;11.43;5.95;;;22.70;1.00;;;;;;4988699;28;20345;-77
2023/09/28 16:46:47;;;;;;;9.10;5.53;;;22.60;1.00;;;;;;4978519;28;20480;-77
2023/09/28 16:49:13;;;;;;;8.43;5.32;;;22.60;1.00;;;;;;4990618;28;20050;-77
2023/09/28 16:51:39;;;;;;;10.00;5.57;;;22.50;1.00;;;;;;4947548;28;20020;-77
2023/09/28 16:54:05;;;;;;;7.82;5.88;;;22.50;1.00;;;;;;4926413;28;20028;-74
2023/09/28 16:56:31;;;;;;;8.07;5.22;;;22.40;1.00;;;;;;4960099;28;20024;-74
2023/09/28 16:58:56;;;;;;;8.25;5.72;;;22.30;3.50;;;;;;4993547;28;20225;-74
2023/09/28 17:01:22;;;;;;;9.77;5.50;;;22.20;1.00;;;;;;5016319;28;20027;-74
2023/09/28 17:03:48;;;;;;;6.35;5.40;;;22.20;18.00;;;;;;5017618;28;20053;-74
2023/09/28 17:06:15;;;;;;;7.30;5.60;;;22.10;41.70;;;;;;5018739;28;20096;-74
2023/09/28 17:08:43;;;;;;;9.88;5.50;;;22.10;40.80;;;;;;5017471;28;20089;-74
2023/09/28 17:11:09;;;;;;;8.07;5.90;;;22.00;38.50;;;;;;5017481;28;20026;-74
2023/09/28 17:13:35;;;;;;;15.10;6.05;;;22.00;81.20;;;;;;5002330;28;20026;-74
2023/09/28 17:16:01;;;;;;;11.05;5.78;;;21.80;61.90;;;;;;5020122;28;20036;-74
2023/09/28 17:18:28;;;;;;;9.18;5.97;;;21.80;92.70;;;;;;5000254;28;20477;-74
2023/09/28 17:20:54;;;;;;;14.40;5.55;;;21.80;13.80;;;;;;4993701;28;20133;-74
2023/09/28 17:23:19;;;;;;;13.20;5.53;;;21.80;67.10;;;;;;4937273;28;20103;-73
2023/09/28 17:25:45;;;;;;;11.55;5.70;;;21.70;99.90;;;;;;5015132;28;20057;-73
2023/09/28 17:28:11;;;;;;;12.90;6.47;;;21.60;94.80;;;;;;5017833;28;20021;-73
2023/09/28 17:30:36;;;;;;;9.18;6.07;;;21.60;99.90;;;;;;4998719;28;20022;-73
2023/09/28 17:33:02;;;;;;;11.65;6.68;;;21.60;99.90;;;;;;5021798;28;20438;-73
2023/09/28 17:35:29;;;;;;;9.88;5.82;;;21.50;99.90;;;;;;5017429;28;20038;-74
2023/09/28 17:37:55;;;;;;;14.50;5.82;;;21.50;99.90;;;;;;5020396;28;20028;-74
2023/09/28 17:40:21;;;;;;;18.02;6.10;;;21.40;99.90;;;;;;5014063;28;20022;-74
2023/09/28 17:42:46;;;;;;;6.40;5.80;;;21.40;99.90;;;;;;4984583;28;20399;-74
2023/09/28 17:45:12;;;;;;;12.63;6.40;;;21.40;99.90;;;;;;5018113;28;20084;-75
2023/09/28 17:47:38;;;;;;;12.32;6.00;;;21.40;99.90;;;;;;5017630;28;20030;-74
2023/09/28 17:50:05;;;;;;;8.48;6.03;;;21.30;99.90;;;;;;5017666;28;20022;-74
2023/09/28 17:52:30;;;;;;;7.28;4.95;;;21.30;93.70;;;;;;4933500;28;20027;-74
2023/09/28 17:54:57;;;;;;;8.57;6.00;;;21.20;93.20;;;;;;4923402;28;20384;-74
2023/09/28 17:57:23;;;;;;;11.30;6.55;;;21.20;82.60;;;;;;4998008;28;20032;-74
2023/09/28 17:59:49;;;;;;;15.10;5.95;;;21.20;95.70;;;;;;5016073;28;20018;-74
2023/09/28 18:02:18;;;;;;;7.85;6.03;;;21.20;57.10;;;;;;5015966;28;20030;-74
2023/09/28 18:04:44;;;;;;;8.07;5.85;;;21.20;78.20;;;;;;5015988;28;20015;-74
2023/09/28 18:07:10;;;;;;;10.75;6.15;;;21.20;20.50;;;;;;4946995;28;20389;-74
2023/09/28 18:09:36;;;;;;;10.07;5.90;;;21.10;9.60;;;;;;4917777;28;20025;-74
2023/09/28 18:12:03;;;;;;;20.00;6.93;;;21.10;24.90;;;;;;4954640;28;20032;-74
2023/09/28 18:14:29;;;;;;;9.75;5.18;;;21.00;6.80;;;;;;4917939;28;20028;-74
2023/09/28 18:16:55;;;;;;;14.27;6.40;;;21.00;34.40;;;;;;4931432;28;20110;-74
2023/09/28 18:19:21;;;;;;;17.15;5.95;;;21.00;85.50;;;;;;4917003;28;20032;-74
2023/09/28 18:21:46;;;;;;;12.30;6.45;;;21.00;79.20;;;;;;5014783;28;20034;-74
2023/09/28 18:24:13;;;;;;;9.95;6.35;;;20.90;99.90;;;;;;5018491;28;20091;-74
2023/09/28 18:26:38;;;;;;;13.82;6.35;;;20.80;99.90;;;;;;5008054;28;20048;-74
2023/09/28 18:29:04;;;;;;;10.25;6.20;;;20.80;99.90;;;;;;5013155;28;20485;-74
2023/09/28 18:31:30;;;;;;;9.60;5.72;;;20.80;99.90;;;;;;5014546;28;20024;-75
2023/09/28 18:33:56;;;;;;;13.10;7.00;;;20.80;70.00;;;;;;4990601;28;20031;-74
2023/09/28 18:36:21;;;;;;;8.32;6.47;;;20.70;97.90;;;;;;5010083;28;20465;-74
2023/09/28 18:38:47;;;;;;;10.75;6.55;;;20.70;70.60;;;;;;5029326;28;20053;-74
2023/09/28 18:41:21;;;;;;;7.20;6.30;;;20.70;95.50;;;;;;5015498;28;20037;-74
2023/09/28 18:43:50;;;;;;;7.82;5.75;;;20.70;99.90;;;;;;5028216;28;20025;-74
2023/09/28 18:46:19;;;;;;;12.75;6.75;;;20.60;99.90;;;;;;4949370;28;20032;-74
2023/09/28 18:48:45;;;;;;;6.70;5.90;;;20.60;99.90;;;;;;4919467;28;20016;-74
2023/09/28 18:51:16;;;;;;;10.55;6.13;;;20.50;99.90;;;;;;4955269;28;20036;-74
2023/09/28 18:53:42;;;;;;;10.65;5.72;;;20.50;99.90;;;;;;4991096;28;20467;-74
2023/09/28 18:56:08;;;;;;;16.23;6.55;;;20.50;99.90;;;;;;4934210;28;20081;-74
2023/09/28 18:58:35;;;;;;;8.90;6.10;;;20.50;99.90;;;;;;4918067;28;20114;-74
2023/09/28 19:01:01;;;;;;;8.15;5.57;;;20.50;99.90;;;;;;4946588;28;20025;-74
2023/09/28 19:03:27;;;;;;;8.82;6.15;;;20.40;99.90;;;;;;4940139;28;20023;-74
2023/09/28 19:05:54;;;;;;;9.68;6.20;;;20.40;99.90;;;;;;4946166;28;20522;-74
2023/09/28 19:08:20;;;;;;;11.30;6.78;;;20.40;99.90;;;;;;4924921;28;20355;-74
2023/09/28 19:10:57;;;;;;;8.73;6.00;;;20.40;99.90;;;;;;4935768;28;20227;-74
2023/09/28 19:13:22;;;;;;;7.97;6.50;;;20.40;99.90;;;;;;5016166;28;20017;-74
2023/09/28 19:15:48;;;;;;;10.02;5.88;;;20.40;99.90;;;;;;5013406;28;20025;-74
2023/09/28 19:18:14;;;;;;;13.07;6.50;;;20.30;99.90;;;;;;5013544;28;20053;-74
2023/09/28 19:20:40;;;;;;;9.75;5.93;;;20.30;99.90;;;;;;4993142;28;20056;-74
2023/09/28 19:23:06;;;;;;;9.45;6.63;;;20.20;99.90;;;;;;5009331;28;20500;-74
2023/09/28 19:25:37;;;;;;;5.88;5.40;;;20.20;99.90;;;;;;5009849;28;20536;-74
2023/09/28 19:28:03;;;;;;;8.90;5.60;;;20.20;99.90;;;;;;4999630;28;20513;-74
2023/09/28 19:30:32;;;;;;;13.10;6.65;;;20.20;99.90;;;;;;4924611;28;20403;-74
2023/09/28 19:32:58;;;;;;;18.00;6.75;;;20.20;99.90;;;;;;5020642;28;20040;-74
2023/09/28 19:35:23;;;;;;;13.95;5.93;;;20.10;99.90;;;;;;5014283;28;20034;-74
2023/09/28 19:37:49;;;;;;;9.70;6.63;;;20.10;99.90;;;;;;5013456;28;20045;-74
2023/09/28 19:40:15;;;;;;;9.43;6.50;;;20.10;99.90;;;;;;5012001;28;20045;-74
2023/09/28 19:42:43;;;;;;;9.90;6.30;;;20.10;99.90;;;;;;5015963;28;20025;-74
2023/09/28 19:45:10;;;;;;;11.65;6.40;;;20.10;99.90;;;;;;5009328;28;20422;-74
2023/09/28 19:47:35;;;;;;;9.10;6.47;;;20.10;99.90;;;;;;5014501;28;20101;-74
2023/09/28 19:50:01;;;;;;;8.15;6.07;;;20.10;99.90;;;;;;4995427;28;20117;-74
2023/09/28 19:52:28;;;;;;;13.02;8.80;;;20.00;99.90;;;;;;5022872;28;20036;-74
2023/09/28 19:54:54;;;;;;;9.73;6.82;;;20.00;99.90;;;;;;5019269;28;20580;-74
2023/09/28 19:57:19;;;;;;;9.00;6.75;;;20.00;99.90;;;;;;5016455;28;20027;-75
2023/09/28 19:59:45;;;;;;;13.48;7.63;;;20.00;99.90;;;;;;5020527;28;20766;-74
2023/09/28 20:02:11;;;;;;;154.90;116.95;;;20.00;99.90;;;;;;4992532;28;20683;-74
2023/09/28 20:04:36;;;;;;;137.95;95.00;;;20.00;99.90;;;;;;5017113;28;20025;-74